Terminal Aerodrome Forecast
Issued by NWS

Home | Current Version | Previous Version | Text Only | Print | Product List | Glossary On
Versions: 1 2 3 4 5 6 7 8 9 10 11 12
000
FTUS42 KILM 212328
TAFCRE
TAF
KCRE 212328Z 2200/2224 09003KT P6SM BKN050 BKN250
     FM220900 07004KT P6SM SCT050 BKN250
     FM221500 13009KT P6SM BKN250=

USA.gov is the U.S. government's official web portal to all federal, state and local government web resources and services.